sensor_id;sensor_type;location;lat;lon;timestamp;pressure;altitude;pressure_sealevel;temperature;humidity
60854;BME280;48554;50.766;2.900;2022-09-13T00:01:18;100368.84;;;22.78;54.65
60854;BME280;48554;50.766;2.900;2022-09-13T00:03:38;100361.81;;;22.77;54.61
60854;BME280;48554;50.766;2.900;2022-09-13T00:06:07;100362.63;;;22.78;54.51
60854;BME280;48554;50.766;2.900;2022-09-13T00:08:27;100361.81;;;22.77;54.69
60854;BME280;48554;50.766;2.900;2022-09-13T00:10:47;100354.53;;;22.78;54.74
60854;BME280;48554;50.766;2.900;2022-09-13T00:13:10;100370.22;;;22.76;54.88
60854;BME280;48554;50.766;2.900;2022-09-13T00:15:31;100385.63;;;22.75;54.67
60854;BME280;48554;50.766;2.900;2022-09-13T00:17:51;100396.72;;;22.74;54.82
60854;BME280;48554;50.766;2.900;2022-09-13T00:20:11;100395.91;;;22.73;54.69
60854;BME280;48554;50.766;2.900;2022-09-13T00:22:32;100397.81;;;22.73;54.49
60854;BME280;48554;50.766;2.900;2022-09-13T00:24:52;100388.09;;;22.72;54.66
60854;BME280;48554;50.766;2.900;2022-09-13T00:27:13;100365.41;;;22.73;54.80
60854;BME280;48554;50.766;2.900;2022-09-13T00:29:33;100365.41;;;22.73;54.86
60854;BME280;48554;50.766;2.900;2022-09-13T00:31:53;100380.00;;;22.72;54.55
60854;BME280;48554;50.766;2.900;2022-09-13T00:34:13;100392.69;;;22.71;54.64
60854;BME280;48554;50.766;2.900;2022-09-13T00:36:34;100390.00;;;22.71;54.88
60854;BME280;48554;50.766;2.900;2022-09-13T00:38:54;100394.59;;;22.71;54.75
60854;BME280;48554;50.766;2.900;2022-09-13T00:41:16;100388.38;;;22.70;54.71
60854;BME280;48554;50.766;2.900;2022-09-13T00:45:59;100385.38;;;22.72;54.89
60854;BME280;48554;50.766;2.900;2022-09-13T00:48:21;100397.31;;;22.71;54.93
60854;BME280;48554;50.766;2.900;2022-09-13T00:50:49;100395.13;;;22.73;54.96
60854;BME280;48554;50.766;2.900;2022-09-13T00:53:25;100396.19;;;22.72;54.88
60854;BME280;48554;50.766;2.900;2022-09-13T00:55:54;100393.50;;;22.72;54.92
60854;BME280;48554;50.766;2.900;2022-09-13T01:00:44;100388.09;;;22.72;54.82
60854;BME280;48554;50.766;2.900;2022-09-13T01:03:08;100389.19;;;22.71;54.82
60854;BME280;48554;50.766;2.900;2022-09-13T01:05:32;100390.78;;;22.72;54.99
60854;BME280;48554;50.766;2.900;2022-09-13T01:07:55;100392.97;;;22.70;54.90
60854;BME280;48554;50.766;2.900;2022-09-13T01:10:16;100398.91;;;22.72;54.81
60854;BME280;48554;50.766;2.900;2022-09-13T01:15:05;100405.09;;;22.72;54.96
60854;BME280;48554;50.766;2.900;2022-09-13T01:17:27;100397.00;;;22.72;54.99
60854;BME280;48554;50.766;2.900;2022-09-13T01:19:47;100410.50;;;22.72;54.94
60854;BME280;48554;50.766;2.900;2022-09-13T01:30:11;100461.00;;;22.72;54.73
60854;BME280;48554;50.766;2.900;2022-09-13T01:37:42;100429.19;;;22.69;54.66
60854;BME280;48554;50.766;2.900;2022-09-13T01:45:27;100432.97;;;22.68;54.77
60854;BME280;48554;50.766;2.900;2022-09-13T01:50:45;100435.97;;;22.66;55.01
60854;BME280;48554;50.766;2.900;2022-09-13T01:54:08;100428.94;;;22.65;54.91
60854;BME280;48554;50.766;2.900;2022-09-13T01:56:32;100432.47;;;22.65;54.99
60854;BME280;48554;50.766;2.900;2022-09-13T01:58:58;100427.88;;;22.66;54.90
60854;BME280;48554;50.766;2.900;2022-09-13T02:01:30;100421.16;;;22.63;55.01
60854;BME280;48554;50.766;2.900;2022-09-13T02:04:23;100421.94;;;22.64;54.72
60854;BME280;48554;50.766;2.900;2022-09-13T02:06:52;100421.94;;;22.64;54.75
60854;BME280;48554;50.766;2.900;2022-09-13T02:09:23;100424.94;;;22.62;54.86
60854;BME280;48554;50.766;2.900;2022-09-13T02:11:49;100420.34;;;22.63;54.93
60854;BME280;48554;50.766;2.900;2022-09-13T02:14:19;100421.16;;;22.63;54.79
60854;BME280;48554;50.766;2.900;2022-09-13T02:16:45;100423.84;;;22.63;54.80
60854;BME280;48554;50.766;2.900;2022-09-13T02:19:19;100414.13;;;22.62;54.84
60854;BME280;48554;50.766;2.900;2022-09-13T02:21:45;100417.94;;;22.61;54.86
60854;BME280;48554;50.766;2.900;2022-09-13T02:24:10;100420.63;;;22.61;54.86
60854;BME280;48554;50.766;2.900;2022-09-13T02:26:34;100421.44;;;22.62;54.99
60854;BME280;48554;50.766;2.900;2022-09-13T02:28:58;100417.94;;;22.61;54.86
60854;BME280;48554;50.766;2.900;2022-09-13T02:31:25;100419.84;;;22.61;55.10
60854;BME280;48554;50.766;2.900;2022-09-13T02:33:52;100415.50;;;22.60;54.89
60854;BME280;48554;50.766;2.900;2022-09-13T02:36:19;100420.91;;;22.60;54.94
60854;BME280;48554;50.766;2.900;2022-09-13T02:39:03;100412.81;;;22.60;54.94
60854;BME280;48554;50.766;2.900;2022-09-13T02:41:33;100414.72;;;22.59;54.93
60854;BME280;48554;50.766;2.900;2022-09-13T02:46:59;100413.13;;;22.58;55.33
60854;BME280;48554;50.766;2.900;2022-09-13T02:54:32;100403.41;;;22.57;55.25
60854;BME280;48554;50.766;2.900;2022-09-13T02:57:04;100399.91;;;22.57;55.12
60854;BME280;48554;50.766;2.900;2022-09-13T02:59:25;100400.69;;;22.57;55.22
60854;BME280;48554;50.766;2.900;2022-09-13T03:02:07;100401.81;;;22.56;55.26
60854;BME280;48554;50.766;2.900;2022-09-13T03:04:29;100394.78;;;22.55;55.15
60854;BME280;48554;50.766;2.900;2022-09-13T03:06:49;100392.06;;;22.55;55.26
60854;BME280;48554;50.766;2.900;2022-09-13T03:09:10;100395.88;;;22.54;55.43
60854;BME280;48554;50.766;2.900;2022-09-13T03:16:34;100392.06;;;22.55;55.50
60854;BME280;48554;50.766;2.900;2022-09-13T03:19:16;100390.47;;;22.54;55.38
60854;BME280;48554;50.766;2.900;2022-09-13T03:24:25;100390.47;;;22.54;55.57
60854;BME280;48554;50.766;2.900;2022-09-13T03:32:48;100392.66;;;22.52;55.75
60854;BME280;48554;50.766;2.900;2022-09-13T03:38:17;100389.16;;;22.52;55.62
60854;BME280;48554;50.766;2.900;2022-09-13T03:40:48;100388.38;;;22.51;55.52
60854;BME280;48554;50.766;2.900;2022-09-13T03:45:37;100388.38;;;22.51;55.74
60854;BME280;48554;50.766;2.900;2022-09-13T03:48:01;100395.38;;;22.52;55.83
60854;BME280;48554;50.766;2.900;2022-09-13T03:50:24;100391.88;;;22.52;55.67
60854;BME280;48554;50.766;2.900;2022-09-13T03:52:46;100387.25;;;22.52;55.53
60854;BME280;48554;50.766;2.900;2022-09-13T03:55:07;100382.97;;;22.51;55.81
60854;BME280;48554;50.766;2.900;2022-09-13T03:57:28;100381.34;;;22.50;55.75
60854;BME280;48554;50.766;2.900;2022-09-13T03:59:53;100376.75;;;22.51;55.66
60854;BME280;48554;50.766;2.900;2022-09-13T04:02:15;100384.03;;;22.50;55.78
60854;BME280;48554;50.766;2.900;2022-09-13T04:04:35;100385.94;;;22.50;55.79
60854;BME280;48554;50.766;2.900;2022-09-13T04:06:56;100381.34;;;22.50;55.66
60854;BME280;48554;50.766;2.900;2022-09-13T04:09:16;100383.53;;;22.48;55.78
60854;BME280;48554;50.766;2.900;2022-09-13T04:11:36;100380.28;;;22.51;55.76
60854;BME280;48554;50.766;2.900;2022-09-13T04:13:56;100386.75;;;22.50;55.81
60854;BME280;48554;50.766;2.900;2022-09-13T04:16:17;100386.75;;;22.50;55.74
60854;BME280;48554;50.766;2.900;2022-09-13T04:18:37;100397.28;;;22.52;55.69
60854;BME280;48554;50.766;2.900;2022-09-13T04:20:58;100398.06;;;22.52;55.74
60854;BME280;48554;50.766;2.900;2022-09-13T04:23:19;100408.34;;;22.50;55.49
60854;BME280;48554;50.766;2.900;2022-09-13T04:25:39;100405.66;;;22.50;55.68
60854;BME280;48554;50.766;2.900;2022-09-13T04:27:59;100410.25;;;22.50;55.55
60854;BME280;48554;50.766;2.900;2022-09-13T04:30:20;100403.25;;;22.49;55.64
60854;BME280;48554;50.766;2.900;2022-09-13T04:32:43;100401.63;;;22.48;55.72
60854;BME280;48554;50.766;2.900;2022-09-13T04:35:03;100414.84;;;22.49;55.76
60854;BME280;48554;50.766;2.900;2022-09-13T04:37:24;100423.22;;;22.48;56.01
60854;BME280;48554;50.766;2.900;2022-09-13T04:39:44;100429.41;;;22.48;56.15
60854;BME280;48554;50.766;2.900;2022-09-13T04:42:05;100422.44;;;22.47;55.91
60854;BME280;48554;50.766;2.900;2022-09-13T04:44:25;100422.44;;;22.47;55.84
60854;BME280;48554;50.766;2.900;2022-09-13T04:46:46;100423.22;;;22.48;55.85
60854;BME280;48554;50.766;2.900;2022-09-13T04:49:09;100427.81;;;22.47;55.85
60854;BME280;48554;50.766;2.900;2022-09-13T04:51:29;100418.13;;;22.46;55.86
60854;BME280;48554;50.766;2.900;2022-09-13T04:53:53;100424.03;;;22.48;55.87
60854;BME280;48554;50.766;2.900;2022-09-13T04:56:14;100420.00;;;22.46;56.04
60854;BME280;48554;50.766;2.900;2022-09-13T04:58:34;100410.03;;;22.46;56.10
60854;BME280;48554;50.766;2.900;2022-09-13T05:01:03;100417.03;;;22.47;56.03
60854;BME280;48554;50.766;2.900;2022-09-13T05:03:23;100399.22;;;22.46;56.05
60854;BME280;48554;50.766;2.900;2022-09-13T05:05:44;100407.34;;;22.46;56.23
60854;BME280;48554;50.766;2.900;2022-09-13T05:08:04;100401.09;;;22.46;56.12
60854;BME280;48554;50.766;2.900;2022-09-13T05:10:24;100404.13;;;22.44;56.20
60854;BME280;48554;50.766;2.900;2022-09-13T05:12:45;100412.72;;;22.46;56.14
60854;BME280;48554;50.766;2.900;2022-09-13T05:15:05;100409.22;;;22.46;56.29
60854;BME280;48554;50.766;2.900;2022-09-13T05:17:28;100407.81;;;22.48;56.21
60854;BME280;48554;50.766;2.900;2022-09-13T05:19:49;100407.81;;;22.48;56.23
60854;BME280;48554;50.766;2.900;2022-09-13T05:22:09;100413.81;;;22.45;56.30
60854;BME280;48554;50.766;2.900;2022-09-13T05:24:29;100419.72;;;22.47;56.20
60854;BME280;48554;50.766;2.900;2022-09-13T05:26:49;100421.63;;;22.47;56.24
60854;BME280;48554;50.766;2.900;2022-09-13T05:29:10;100417.31;;;22.46;56.39
60854;BME280;48554;50.766;2.900;2022-09-13T05:31:33;100421.31;;;22.48;56.37
60854;BME280;48554;50.766;2.900;2022-09-13T05:33:57;100433.75;;;22.49;56.34
60854;BME280;48554;50.766;2.900;2022-09-13T05:36:18;100432.13;;;22.48;56.51
60854;BME280;48554;50.766;2.900;2022-09-13T05:38:38;100431.63;;;22.46;56.50
60854;BME280;48554;50.766;2.900;2022-09-13T05:41:01;100424.59;;;22.45;56.39
60854;BME280;48554;50.766;2.900;2022-09-13T05:43:26;100430.25;;;22.49;56.14
60854;BME280;48554;50.766;2.900;2022-09-13T05:45:46;100433.97;;;22.53;56.39
60854;BME280;48554;50.766;2.900;2022-09-13T05:48:07;100424.25;;;22.52;56.33
60854;BME280;48554;50.766;2.900;2022-09-13T05:50:27;100428.28;;;22.54;56.72
60854;BME280;48554;50.766;2.900;2022-09-13T05:52:54;100428.28;;;22.54;56.70
60854;BME280;48554;50.766;2.900;2022-09-13T05:55:15;100433.69;;;22.54;56.94
60854;BME280;48554;50.766;2.900;2022-09-13T05:57:35;100443.38;;;22.55;56.52
60854;BME280;48554;50.766;2.900;2022-09-13T05:59:55;100439.59;;;22.56;56.63
60854;BME280;48554;50.766;2.900;2022-09-13T06:02:16;100447.19;;;22.54;57.06
60854;BME280;48554;50.766;2.900;2022-09-13T06:04:36;100449.34;;;22.52;57.08
60854;BME280;48554;50.766;2.900;2022-09-13T06:06:56;100450.47;;;22.51;57.76
60854;BME280;48554;50.766;2.900;2022-09-13T06:09:16;100454.25;;;22.50;58.02
60854;BME280;48554;50.766;2.900;2022-09-13T06:11:37;100451.84;;;22.49;58.03
60854;BME280;48554;50.766;2.900;2022-09-13T06:13:57;100454.25;;;22.50;57.65
60854;BME280;48554;50.766;2.900;2022-09-13T06:16:17;100454.25;;;22.50;57.94
60854;BME280;48554;50.766;2.900;2022-09-13T06:18:38;100458.03;;;22.49;57.84
60854;BME280;48554;50.766;2.900;2022-09-13T06:21:01;100459.94;;;22.49;58.22
60854;BME280;48554;50.766;2.900;2022-09-13T06:23:22;100462.66;;;22.49;58.18
60854;BME280;48554;50.766;2.900;2022-09-13T06:25:42;100463.72;;;22.48;58.22
60854;BME280;48554;50.766;2.900;2022-09-13T06:28:03;100457.78;;;22.46;58.15
60854;BME280;48554;50.766;2.900;2022-09-13T06:30:24;100458.63;;;22.46;58.14
60854;BME280;48554;50.766;2.900;2022-09-13T06:32:44;100462.91;;;22.47;58.37
60854;BME280;48554;50.766;2.900;2022-09-13T06:35:05;100466.19;;;22.44;58.30
60854;BME280;48554;50.766;2.900;2022-09-13T06:37:25;100463.50;;;22.44;58.16
60854;BME280;48554;50.766;2.900;2022-09-13T06:39:46;100458.91;;;22.44;58.42
60854;BME280;48554;50.766;2.900;2022-09-13T06:42:06;100455.41;;;22.44;58.19
60854;BME280;48554;50.766;2.900;2022-09-13T06:44:26;100450.81;;;22.44;58.10
60854;BME280;48554;50.766;2.900;2022-09-13T06:46:46;100465.09;;;22.45;58.13
60854;BME280;48554;50.766;2.900;2022-09-13T06:49:07;100460.81;;;22.44;58.04
60854;BME280;48554;50.766;2.900;2022-09-13T06:51:27;100468.91;;;22.44;58.11
60854;BME280;48554;50.766;2.900;2022-09-13T06:53:48;100467.81;;;22.45;57.97
60854;BME280;48554;50.766;2.900;2022-09-13T06:56:14;100466.19;;;22.44;57.96
60854;BME280;48554;50.766;2.900;2022-09-13T06:58:36;100460.81;;;22.44;57.94
60854;BME280;48554;50.766;2.900;2022-09-13T07:01:12;100466.19;;;22.44;58.10
60854;BME280;48554;50.766;2.900;2022-09-13T07:03:32;100459.19;;;22.43;58.00
60854;BME280;48554;50.766;2.900;2022-09-13T07:05:52;100457.59;;;22.42;57.99
60854;BME280;48554;50.766;2.900;2022-09-13T07:08:13;100461.59;;;22.44;58.19
60854;BME280;48554;50.766;2.900;2022-09-13T07:10:33;100448.38;;;22.43;58.08
60854;BME280;48554;50.766;2.900;2022-09-13T07:12:53;100441.38;;;22.42;57.93
60854;BME280;48554;50.766;2.900;2022-09-13T07:15:13;100437.59;;;22.43;58.02
60854;BME280;48554;50.766;2.900;2022-09-13T07:17:34;100444.59;;;22.44;57.74
60854;BME280;48554;50.766;2.900;2022-09-13T07:19:54;100440.28;;;22.43;58.01
60854;BME280;48554;50.766;2.900;2022-09-13T07:22:14;100437.59;;;22.43;57.91
60854;BME280;48554;50.766;2.900;2022-09-13T07:24:34;100431.38;;;22.42;58.16
60854;BME280;48554;50.766;2.900;2022-09-13T07:26:55;100437.59;;;22.43;57.95
60854;BME280;48554;50.766;2.900;2022-09-13T07:29:18;100433.00;;;22.43;57.86
60854;BME280;48554;50.766;2.900;2022-09-13T07:31:40;100429.47;;;22.43;58.02
60854;BME280;48554;50.766;2.900;2022-09-13T07:34:03;100425.19;;;22.42;57.97
60854;BME280;48554;50.766;2.900;2022-09-13T07:36:25;100417.63;;;22.44;57.83
60854;BME280;48554;50.766;2.900;2022-09-13T07:38:46;100417.63;;;22.44;58.19
60854;BME280;48554;50.766;2.900;2022-09-13T07:41:10;100417.63;;;22.44;58.26
60854;BME280;48554;50.766;2.900;2022-09-13T07:43:35;100417.63;;;22.44;58.11
60854;BME280;48554;50.766;2.900;2022-09-13T07:46:09;100419.22;;;22.45;58.29
60854;BME280;48554;50.766;2.900;2022-09-13T07:48:33;100419.22;;;22.45;58.30
60854;BME280;48554;50.766;2.900;2022-09-13T07:51:05;100423.00;;;22.44;58.24
60854;BME280;48554;50.766;2.900;2022-09-13T07:53:26;100416.81;;;22.43;58.20
60854;BME280;48554;50.766;2.900;2022-09-13T07:55:46;100427.63;;;22.43;58.06
60854;BME280;48554;50.766;2.900;2022-09-13T07:58:07;100421.38;;;22.43;58.21
60854;BME280;48554;50.766;2.900;2022-09-13T08:00:27;100430.59;;;22.42;58.03
60854;BME280;48554;50.766;2.900;2022-09-13T08:02:47;100446.19;;;22.45;58.28
60854;BME280;48554;50.766;2.900;2022-09-13T08:05:07;100446.19;;;22.45;58.24
60854;BME280;48554;50.766;2.900;2022-09-13T08:07:28;100447.31;;;22.44;58.05
60854;BME280;48554;50.766;2.900;2022-09-13T08:09:48;100439.22;;;22.44;58.19
60854;BME280;48554;50.766;2.900;2022-09-13T08:12:08;100445.41;;;22.44;58.17
60854;BME280;48554;50.766;2.900;2022-09-13T08:14:28;100450.81;;;22.44;58.02
60854;BME280;48554;50.766;2.900;2022-09-13T08:16:49;100441.38;;;22.42;58.03
60854;BME280;48554;50.766;2.900;2022-09-13T08:19:12;100439.22;;;22.44;58.15
60854;BME280;48554;50.766;2.900;2022-09-13T08:21:37;100438.41;;;22.43;57.98
60854;BME280;48554;50.766;2.900;2022-09-13T08:23:58;100437.31;;;22.44;57.90
60854;BME280;48554;50.766;2.900;2022-09-13T08:26:19;100448.09;;;22.44;57.95
60854;BME280;48554;50.766;2.900;2022-09-13T08:28:41;100445.41;;;22.44;57.88
60854;BME280;48554;50.766;2.900;2022-09-13T08:31:09;100439.22;;;22.44;57.94
60854;BME280;48554;50.766;2.900;2022-09-13T08:33:30;100432.19;;;22.43;57.88
60854;BME280;48554;50.766;2.900;2022-09-13T08:35:51;100434.88;;;22.43;57.94
60854;BME280;48554;50.766;2.900;2022-09-13T08:38:11;100438.09;;;22.45;57.96
60854;BME280;48554;50.766;2.900;2022-09-13T08:40:40;100434.59;;;22.44;57.72
60854;BME280;48554;50.766;2.900;2022-09-13T08:43:05;100422.22;;;22.43;57.78
60854;BME280;48554;50.766;2.900;2022-09-13T08:45:34;100427.31;;;22.45;57.60
60854;BME280;48554;50.766;2.900;2022-09-13T08:48:13;100414.41;;;22.42;57.73
60854;BME280;48554;50.766;2.900;2022-09-13T08:50:36;100419.22;;;22.45;57.63
60854;BME280;48554;50.766;2.900;2022-09-13T09:01:10;100394.13;;;22.44;57.82
60854;BME280;48554;50.766;2.900;2022-09-13T09:06:19;100393.84;;;22.46;57.66
60854;BME280;48554;50.766;2.900;2022-09-13T09:11:11;100366.00;;;22.46;57.62
60854;BME280;48554;50.766;2.900;2022-09-13T09:13:42;100361.44;;;22.46;57.66
60854;BME280;48554;50.766;2.900;2022-09-13T09:18:45;100399.22;;;22.46;57.54
60854;BME280;48554;50.766;2.900;2022-09-13T09:21:12;100407.03;;;22.48;57.69
60854;BME280;48554;50.766;2.900;2022-09-13T09:26:21;100420.47;;;22.53;57.50
60854;BME280;48554;50.766;2.900;2022-09-13T09:29:09;100418.06;;;22.51;57.67
60854;BME280;48554;50.766;2.900;2022-09-13T09:37:13;100408.06;;;22.52;57.86
60854;BME280;48554;50.766;2.900;2022-09-13T09:39:36;100402.38;;;22.53;57.83
60854;BME280;48554;50.766;2.900;2022-09-13T09:41:57;100402.88;;;22.55;57.54
60854;BME280;48554;50.766;2.900;2022-09-13T09:44:30;100387.50;;;22.56;57.85
60854;BME280;48554;50.766;2.900;2022-09-13T09:47:02;100385.59;;;22.56;57.92
60854;BME280;48554;50.766;2.900;2022-09-13T09:49:36;100389.09;;;22.57;57.82
60854;BME280;48554;50.766;2.900;2022-09-13T09:51:59;100400.69;;;22.57;57.79
60854;BME280;48554;50.766;2.900;2022-09-13T09:54:20;100397.19;;;22.57;57.80
60854;BME280;48554;50.766;2.900;2022-09-13T09:56:51;100398.00;;;22.57;57.79
60854;BME280;48554;50.766;2.900;2022-09-13T09:59:28;100400.19;;;22.55;57.96
60854;BME280;48554;50.766;2.900;2022-09-13T10:01:49;100393.69;;;22.56;57.81
60854;BME280;48554;50.766;2.900;2022-09-13T10:06:30;100386.13;;;22.58;57.89
60854;BME280;48554;50.766;2.900;2022-09-13T10:08:57;100381.53;;;22.59;57.96
60854;BME280;48554;50.766;2.900;2022-09-13T10:11:18;100386.91;;;22.59;58.04
60854;BME280;48554;50.766;2.900;2022-09-13T10:13:59;100396.91;;;22.58;57.92
60854;BME280;48554;50.766;2.900;2022-09-13T10:16:27;100398.53;;;22.59;57.96
60854;BME280;48554;50.766;2.900;2022-09-13T10:18:48;100397.41;;;22.60;57.76
60854;BME280;48554;50.766;2.900;2022-09-13T10:23:37;100393.13;;;22.59;57.97
60854;BME280;48554;50.766;2.900;2022-09-13T10:26:08;100406.34;;;22.61;58.08
60854;BME280;48554;50.766;2.900;2022-09-13T10:28:32;100409.84;;;22.61;57.94
60854;BME280;48554;50.766;2.900;2022-09-13T10:31:07;100405.50;;;22.60;58.08
60854;BME280;48554;50.766;2.900;2022-09-13T10:33:39;100400.09;;;22.60;58.02
60854;BME280;48554;50.766;2.900;2022-09-13T10:36:04;100395.53;;;22.61;58.27
60854;BME280;48554;50.766;2.900;2022-09-13T10:38:35;100399.03;;;22.61;58.08
60854;BME280;48554;50.766;2.900;2022-09-13T10:40:57;100391.72;;;22.62;57.90
60854;BME280;48554;50.766;2.900;2022-09-13T10:43:27;100414.72;;;22.59;58.19
60854;BME280;48554;50.766;2.900;2022-09-13T10:45:49;100424.13;;;22.62;58.03
60854;BME280;48554;50.766;2.900;2022-09-13T10:48:15;100424.94;;;22.62;58.17
60854;BME280;48554;50.766;2.900;2022-09-13T10:50:36;100423.84;;;22.63;58.03
60854;BME280;48554;50.766;2.900;2022-09-13T10:52:58;100430.34;;;22.62;58.12
60854;BME280;48554;50.766;2.900;2022-09-13T10:57:39;100411.75;;;22.61;58.09
60854;BME280;48554;50.766;2.900;2022-09-13T10:59:59;100422.81;;;22.59;58.20
60854;BME280;48554;50.766;2.900;2022-09-13T11:07:38;100442.50;;;22.60;58.28
60854;BME280;48554;50.766;2.900;2022-09-13T11:18:05;100419.06;;;22.55;58.22
60854;BME280;48554;50.766;2.900;2022-09-13T11:28:40;100408.28;;;22.55;58.31
60854;BME280;48554;50.766;2.900;2022-09-13T11:31:21;100398.31;;;22.56;58.56
60854;BME280;48554;50.766;2.900;2022-09-13T11:34:01;100392.06;;;22.55;58.31
60854;BME280;48554;50.766;2.900;2022-09-13T11:44:47;100399.09;;;22.56;58.60
60854;BME280;48554;50.766;2.900;2022-09-13T11:57:28;100400.69;;;22.57;58.61
60854;BME280;48554;50.766;2.900;2022-09-13T11:59:54;100400.69;;;22.57;58.65
60854;BME280;48554;50.766;2.900;2022-09-13T12:02:38;100388.31;;;22.56;58.52
60854;BME280;48554;50.766;2.900;2022-09-13T12:05:21;100366.69;;;22.56;58.50
60854;BME280;48554;50.766;2.900;2022-09-13T12:07:50;100379.41;;;22.56;58.91
60854;BME280;48554;50.766;2.900;2022-09-13T12:10:19;100384.50;;;22.57;58.67
60854;BME280;48554;50.766;2.900;2022-09-13T12:12:41;100386.13;;;22.58;58.42
60854;BME280;48554;50.766;2.900;2022-09-13T12:15:13;100384.50;;;22.57;58.76
60854;BME280;48554;50.766;2.900;2022-09-13T12:17:44;100377.44;;;22.61;58.45
60854;BME280;48554;50.766;2.900;2022-09-13T12:20:30;100379.34;;;22.61;58.91
60854;BME280;48554;50.766;2.900;2022-09-13T12:22:53;100389.31;;;22.60;58.72
60854;BME280;48554;50.766;2.900;2022-09-13T12:25:22;100380.13;;;22.61;58.64
60854;BME280;48554;50.766;2.900;2022-09-13T12:28:21;100373.09;;;22.60;58.78
60854;BME280;48554;50.766;2.900;2022-09-13T12:30:51;100380.13;;;22.61;58.90
60854;BME280;48554;50.766;2.900;2022-09-13T12:33:14;100396.84;;;22.63;58.80
60854;BME280;48554;50.766;2.900;2022-09-13T12:35:52;100402.81;;;22.60;59.09
60854;BME280;48554;50.766;2.900;2022-09-13T12:39:17;100415.25;;;22.61;59.03
60854;BME280;48554;50.766;2.900;2022-09-13T13:02:35;100432.75;;;22.64;59.21
60854;BME280;48554;50.766;2.900;2022-09-13T13:07:42;100435.19;;;22.65;59.08
60854;BME280;48554;50.766;2.900;2022-09-13T13:12:48;100444.06;;;22.66;59.34
60854;BME280;48554;50.766;2.900;2022-09-13T13:17:48;100431.66;;;22.65;59.13
60854;BME280;48554;50.766;2.900;2022-09-13T13:26:04;100424.38;;;22.65;59.40
60854;BME280;48554;50.766;2.900;2022-09-13T13:31:03;100417.88;;;22.67;59.48
60854;BME280;48554;50.766;2.900;2022-09-13T13:33:27;100425.16;;;22.66;59.31
60854;BME280;48554;50.766;2.900;2022-09-13T13:35:48;100422.16;;;22.68;59.21
60854;BME280;48554;50.766;2.900;2022-09-13T13:40:48;100415.16;;;22.67;59.45
60854;BME280;48554;50.766;2.900;2022-09-13T13:43:34;100410.88;;;22.65;59.31
60854;BME280;48554;50.766;2.900;2022-09-13T13:48:46;100409.75;;;22.67;59.44
60854;BME280;48554;50.766;2.900;2022-09-13T13:53:35;100414.38;;;22.66;59.54
60854;BME280;48554;50.766;2.900;2022-09-13T13:56:19;100416.56;;;22.64;59.63
60854;BME280;48554;50.766;2.900;2022-09-13T13:58:48;100409.75;;;22.67;59.33
60854;BME280;48554;50.766;2.900;2022-09-13T14:01:16;100410.03;;;22.65;59.70
60854;BME280;48554;50.766;2.900;2022-09-13T14:04:29;100404.94;;;22.63;59.26
60854;BME280;48554;50.766;2.900;2022-09-13T14:07:14;100412.25;;;22.63;59.41
60854;BME280;48554;50.766;2.900;2022-09-13T14:10:00;100407.13;;;22.61;59.49
60854;BME280;48554;50.766;2.900;2022-09-13T14:12:33;100413.84;;;22.64;59.29
60854;BME280;48554;50.766;2.900;2022-09-13T14:17:51;100408.72;;;22.62;59.22
60854;BME280;48554;50.766;2.900;2022-09-13T14:20:16;100401.94;;;22.65;59.31
60854;BME280;48554;50.766;2.900;2022-09-13T14:22:37;100396.84;;;22.63;59.47
60854;BME280;48554;50.766;2.900;2022-09-13T14:25:13;100393.34;;;22.63;59.61
60854;BME280;48554;50.766;2.900;2022-09-13T14:27:35;100381.72;;;22.62;59.48
60854;BME280;48554;50.766;2.900;2022-09-13T14:29:59;100377.44;;;22.61;59.51
60854;BME280;48554;50.766;2.900;2022-09-13T14:32:23;100373.94;;;22.61;59.63
60854;BME280;48554;50.766;2.900;2022-09-13T14:34:56;100382.84;;;22.61;59.55
60854;BME280;48554;50.766;2.900;2022-09-13T14:37:18;100379.34;;;22.61;59.66
60854;BME280;48554;50.766;2.900;2022-09-13T14:39:55;100383.91;;;22.60;59.25
60854;BME280;48554;50.766;2.900;2022-09-13T14:42:16;100383.91;;;22.60;59.44
60854;BME280;48554;50.766;2.900;2022-09-13T14:44:36;100386.59;;;22.60;59.72
60854;BME280;48554;50.766;2.900;2022-09-13T14:47:12;100384.75;;;22.61;59.40
60854;BME280;48554;50.766;2.900;2022-09-13T14:49:38;100382.31;;;22.59;59.67
60854;BME280;48554;50.766;2.900;2022-09-13T14:52:20;100381.22;;;22.60;59.46
60854;BME280;48554;50.766;2.900;2022-09-13T14:54:45;100375.31;;;22.58;59.67
60854;BME280;48554;50.766;2.900;2022-09-13T14:57:22;100376.91;;;22.59;59.58
60854;BME280;48554;50.766;2.900;2022-09-13T14:59:46;100366.63;;;22.61;59.70
60854;BME280;48554;50.766;2.900;2022-09-13T15:02:19;100361.50;;;22.60;59.66
60854;BME280;48554;50.766;2.900;2022-09-13T15:04:40;100346.09;;;22.60;59.58
60854;BME280;48554;50.766;2.900;2022-09-13T15:07:15;100347.72;;;22.61;59.51
60854;BME280;48554;50.766;2.900;2022-09-13T15:09:37;100340.94;;;22.64;59.61
60854;BME280;48554;50.766;2.900;2022-09-13T15:11:59;100348.25;;;22.63;59.71
60854;BME280;48554;50.766;2.900;2022-09-13T15:14:35;100346.34;;;22.64;59.72
60854;BME280;48554;50.766;2.900;2022-09-13T15:17:06;100337.97;;;22.65;60.05
60854;BME280;48554;50.766;2.900;2022-09-13T15:22:30;100344.44;;;22.64;60.09
60854;BME280;48554;50.766;2.900;2022-09-13T15:24:56;100343.38;;;22.65;60.29
60854;BME280;48554;50.766;2.900;2022-09-13T15:29:48;100341.16;;;22.68;60.07
60854;BME280;48554;50.766;2.900;2022-09-13T15:32:19;100334.94;;;22.67;60.37
60854;BME280;48554;50.766;2.900;2022-09-13T15:34:45;100340.34;;;22.67;60.19
60854;BME280;48554;50.766;2.900;2022-09-13T15:37:10;100333.06;;;22.68;60.29
60854;BME280;48554;50.766;2.900;2022-09-13T15:39:45;100335.75;;;22.68;60.53
60854;BME280;48554;50.766;2.900;2022-09-13T15:42:05;100338.97;;;22.70;60.24